ABY144 OMSJ-OOMS
Flight info
| Callsign | ABY144 |
|---|---|
| Flight time | N/A |
| Altitude | 30000 |
| Route | ANVI5R ANVIX L223 TARDI N629 MUSUK T511 MCT |
| Aircraft | A321/M-V/N |
Departure
| Time | 2026-04-25 20:31 |
|---|---|
| Airport | Sharjah International Airport (OMSJ) |
Arrival
| Time | N/A |
|---|---|
| Airport | Muscat International Airport (OOMS) |
| Time | Latitude | Longitude | Altitude | Speed | Heading |
|---|---|---|---|---|---|
| 2026-04-25 19:59 | 25.32463 | 55.51809 | 117 ft | 0 kts | 303° |
| 2026-04-25 20:22 | 25.32462 | 55.51811 | 117 ft | 0 kts | 303° |
| 2026-04-25 20:22 | 25.32456 | 55.51820 | 117 ft | 0 kts | 303° |
| 2026-04-25 20:22 | 25.32451 | 55.51830 | 117 ft | 0 kts | 303° |
| 2026-04-25 20:23 | 25.32445 | 55.51840 | 117 ft | 0 kts | 310° |
| 2026-04-25 20:23 | 25.32437 | 55.51847 | 117 ft | 0 kts | 355° |
| 2026-04-25 20:23 | 25.32428 | 55.51847 | 117 ft | 0 kts | 21° |
| 2026-04-25 20:23 | 25.32418 | 55.51844 | 117 ft | 0 kts | 32° |
| 2026-04-25 20:24 | 25.32417 | 55.51843 | 117 ft | 0 kts | 32° |
| 2026-04-25 20:24 | 25.32416 | 55.51843 | 117 ft | 0 kts | 31° |
| 2026-04-25 20:26 | 25.32418 | 55.51843 | 117 ft | 2 kts | 21° |
| 2026-04-25 20:26 | 25.32479 | 55.51886 | 117 ft | 18 kts | 33° |
| 2026-04-25 20:26 | 25.32517 | 55.51970 | 117 ft | 11 kts | 123° |
| 2026-04-25 20:26 | 25.32469 | 55.52050 | 117 ft | 13 kts | 121° |
| 2026-04-25 20:27 | 25.32412 | 55.52152 | 117 ft | 18 kts | 121° |
| 2026-04-25 20:27 | 25.32335 | 55.52286 | 117 ft | 23 kts | 122° |
| 2026-04-25 20:27 | 25.32246 | 55.52441 | 117 ft | 23 kts | 122° |
| 2026-04-25 20:27 | 25.32157 | 55.52596 | 117 ft | 24 kts | 122° |
| 2026-04-25 20:28 | 25.32067 | 55.52753 | 117 ft | 24 kts | 122° |
| 2026-04-25 20:28 | 25.31976 | 55.52910 | 117 ft | 24 kts | 124° |
| 2026-04-25 20:28 | 25.31889 | 55.53057 | 117 ft | 24 kts | 123° |
| 2026-04-25 20:28 | 25.31800 | 55.53215 | 117 ft | 21 kts | 120° |
| 2026-04-25 20:29 | 25.31797 | 55.53359 | 117 ft | 16 kts | 49° |
| 2026-04-25 20:29 | 25.31880 | 55.53420 | 117 ft | 0 kts | 31° |
| 2026-04-25 20:29 | 25.31886 | 55.53424 | 117 ft | 2 kts | 31° |
| 2026-04-25 20:29 | 25.31895 | 55.53430 | 117 ft | 1 kts | 31° |
| 2026-04-25 20:30 | 25.31923 | 55.53449 | 117 ft | 7 kts | 31° |
| 2026-04-25 20:30 | 25.31990 | 55.53496 | 117 ft | 14 kts | 34° |
| 2026-04-25 20:30 | 25.32087 | 55.53514 | 117 ft | 15 kts | 329° |
| 2026-04-25 20:30 | 25.32161 | 55.53392 | 117 ft | 49 kts | 302° |
| 2026-04-25 20:31 | 25.32515 | 55.52776 | 117 ft | 138 kts | 303° |
| 2026-04-25 20:31 | 25.33132 | 55.51716 | 500 ft | 177 kts | 303° |
| 2026-04-25 20:31 | 25.33827 | 55.50528 | 1214 ft | 200 kts | 303° |
| 2026-04-25 20:31 | 25.34570 | 55.49240 | 2138 ft | 216 kts | 302° |
| 2026-04-25 20:32 | 25.35415 | 55.47760 | 3057 ft | 237 kts | 302° |
| 2026-04-25 20:32 | 25.36277 | 55.46245 | 3943 ft | 236 kts | 302° |
| 2026-04-25 20:32 | 25.37143 | 55.44722 | 4847 ft | 239 kts | 302° |
| 2026-04-25 20:32 | 25.38003 | 55.43211 | 5806 ft | 238 kts | 302° |
| 2026-04-25 20:33 | 25.38973 | 55.41725 | 6649 ft | 241 kts | 319° |
| 2026-04-25 20:33 | 25.40461 | 55.40901 | 7428 ft | 245 kts | 353° |
| 2026-04-25 20:33 | 25.42110 | 55.41111 | 8210 ft | 247 kts | 25° |
| 2026-04-25 20:33 | 25.43116 | 55.41727 | 8756 ft | 248 kts | 33° |